createdAt,value
2024-01-11T00:01:48.787Z,17.98
2024-01-11T00:04:22.148Z,17.02
2024-01-11T00:06:53.983Z,16.92
2024-01-11T00:09:24.827Z,16.58
2024-01-11T00:11:57.553Z,16.48
2024-01-11T00:14:28.391Z,16.35
2024-01-11T00:16:59.062Z,17.50
2024-01-11T00:19:29.550Z,17.65
2024-01-11T00:22:00.612Z,17.20
2024-01-11T00:24:39.275Z,16.13
2024-01-11T00:27:10.894Z,17.58
2024-01-11T00:29:43.729Z,17.58
2024-01-11T00:32:14.093Z,17.27
2024-01-11T00:34:45.036Z,16.63
2024-01-11T00:37:20.850Z,18.27
2024-01-11T00:39:53.728Z,17.65
2024-01-11T00:42:24.053Z,17.20
2024-01-11T00:44:54.690Z,16.88
2024-01-11T00:47:25.120Z,16.55
2024-01-11T00:49:56.246Z,16.80
2024-01-11T00:52:27.355Z,17.58
2024-01-11T00:54:58.733Z,16.85
2024-01-11T00:57:28.933Z,17.90
2024-01-11T01:00:01.673Z,17.58
2024-01-11T01:02:44.709Z,16.77
2024-01-11T01:05:18.333Z,17.58
2024-01-11T01:10:22.180Z,17.15
2024-01-11T01:12:52.738Z,17.88
2024-01-11T01:15:23.444Z,17.02
2024-01-11T01:17:55.063Z,16.73
2024-01-11T01:20:26.162Z,16.77
2024-01-11T01:22:59.378Z,17.25
2024-01-11T01:25:33.920Z,18.17
2024-01-11T01:28:05.037Z,16.90
2024-01-11T01:30:40.066Z,16.17
2024-01-11T01:33:27.013Z,18.02
2024-01-11T01:35:58.563Z,18.45
2024-01-11T01:38:29.035Z,18.13
2024-01-11T01:40:59.521Z,17.83
2024-01-11T01:43:34.715Z,18.00
2024-01-11T01:46:09.656Z,16.75
2024-01-11T01:48:42.612Z,18.30
2024-01-11T01:51:13.334Z,16.73
2024-01-11T01:53:43.948Z,18.58
2024-01-11T01:56:22.712Z,17.33
2024-01-11T01:58:54.630Z,18.42
2024-01-11T02:01:28.893Z,17.65
2024-01-11T02:03:59.854Z,17.90
2024-01-11T02:06:33.649Z,17.70
2024-01-11T02:09:12.146Z,17.42
2024-01-11T02:11:45.285Z,16.80
2024-01-11T02:14:18.493Z,16.77
2024-01-11T02:16:49.418Z,16.80
2024-01-11T02:19:23.448Z,19.05
2024-01-11T02:21:58.985Z,17.58
2024-01-11T02:24:29.465Z,17.13
2024-01-11T02:27:05.256Z,16.63
2024-01-11T02:29:36.195Z,17.40
2024-01-11T02:32:13.880Z,17.67
2024-01-11T02:34:44.195Z,17.40
2024-01-11T02:37:17.882Z,16.63
2024-01-11T02:39:50.070Z,17.30
2024-01-11T02:42:21.734Z,17.92
2024-01-11T02:44:58.125Z,17.70
2024-01-11T02:47:29.875Z,18.80
2024-01-11T02:50:00.772Z,17.98
2024-01-11T02:52:39.728Z,17.23
2024-01-11T02:55:13.044Z,16.58
2024-01-11T02:57:45.535Z,17.70
2024-01-11T03:00:16.180Z,17.35
2024-01-11T03:02:52.908Z,18.67
2024-01-11T03:05:23.968Z,18.15
2024-01-11T03:07:55.421Z,18.45
2024-01-11T03:10:26.538Z,19.45
2024-01-11T03:13:01.704Z,18.52
2024-01-11T03:15:35.489Z,18.58
2024-01-11T03:18:09.118Z,18.83
2024-01-11T03:20:42.543Z,18.13
2024-01-11T03:23:14.934Z,19.85
2024-01-11T03:25:45.358Z,20.15
2024-01-11T03:28:20.220Z,13.23
2024-01-11T03:30:51.132Z,18.45
2024-01-11T03:33:34.727Z,18.40
2024-01-11T03:36:14.742Z,18.45
2024-01-11T03:38:50.712Z,18.90
2024-01-11T03:41:22.750Z,17.88
2024-01-11T03:43:53.960Z,20.30
2024-01-11T03:46:27.159Z,19.17
2024-01-11T03:48:58.451Z,19.20
2024-01-11T03:51:31.180Z,20.38
2024-01-11T03:54:02.023Z,19.35
2024-01-11T03:56:37.345Z,21.10
2024-01-11T04:01:42.408Z,19.88
2024-01-11T04:04:14.570Z,20.00
2024-01-11T04:06:45.456Z,19.55
2024-01-11T04:09:16.390Z,20.70
2024-01-11T04:11:46.926Z,20.42
2024-01-11T04:16:50.399Z,18.45
2024-01-11T04:19:23.989Z,21.45
2024-01-11T04:21:56.601Z,19.63
2024-01-11T04:24:26.926Z,19.40
2024-01-11T04:26:57.771Z,20.48
2024-01-11T04:29:28.658Z,19.48
2024-01-11T04:32:02.968Z,20.83
2024-01-11T04:34:37.332Z,20.92
2024-01-11T04:37:08.254Z,19.80
2024-01-11T04:39:40.492Z,21.03
2024-01-11T04:42:13.594Z,21.42
2024-01-11T04:44:46.344Z,20.52
2024-01-11T04:47:21.160Z,20.23
2024-01-11T04:49:56.712Z,23.15
2024-01-11T04:52:29.553Z,20.63
2024-01-11T04:55:02.021Z,20.60
2024-01-11T04:57:38.049Z,20.23
2024-01-11T05:00:09.790Z,19.30
2024-01-11T05:02:58.850Z,20.52
2024-01-11T05:05:29.559Z,21.05
2024-01-11T05:08:00.245Z,20.73
2024-01-11T05:10:33.910Z,20.70
2024-01-11T05:13:08.773Z,19.83
2024-01-11T05:15:40.372Z,20.55
2024-01-11T05:18:16.686Z,19.73
2024-01-11T05:20:50.933Z,20.35
2024-01-11T05:23:21.913Z,21.45
2024-01-11T05:25:54.655Z,19.65
2024-01-11T05:28:25.101Z,20.45
2024-01-11T05:30:56.389Z,20.40
2024-01-11T05:33:35.723Z,20.35
2024-01-11T05:36:07.267Z,19.70
2024-01-11T05:38:38.102Z,21.48
2024-01-11T05:41:11.871Z,20.38
2024-01-11T05:43:42.648Z,22.48
2024-01-11T05:46:13.025Z,20.25
2024-01-11T05:48:47.099Z,20.92
2024-01-11T05:51:17.805Z,21.05
2024-01-11T05:53:51.514Z,19.95
2024-01-11T05:56:25.526Z,21.30
2024-01-11T05:58:56.123Z,21.50
2024-01-11T06:01:28.324Z,20.17
2024-01-11T06:03:59.925Z,21.33
2024-01-11T06:06:31.045Z,21.33
2024-01-11T06:09:05.806Z,20.65
2024-01-11T06:11:42.881Z,20.95
2024-01-11T06:14:13.412Z,20.45
2024-01-11T06:16:48.622Z,21.73
2024-01-11T06:19:19.731Z,21.35
2024-01-11T06:21:51.330Z,20.38
2024-01-11T06:24:23.957Z,20.50
2024-01-11T06:26:57.839Z,21.15
2024-01-11T06:29:28.541Z,20.98
2024-01-11T06:32:02.340Z,21.70
2024-01-11T06:34:33.173Z,19.77
2024-01-11T06:37:06.889Z,20.77
2024-01-11T06:39:37.363Z,20.42
2024-01-11T06:42:08.350Z,20.45
2024-01-11T06:44:42.405Z,21.38
2024-01-11T06:47:15.843Z,20.58
2024-01-11T06:52:23.015Z,19.65
2024-01-11T06:54:53.919Z,20.42
2024-01-11T06:57:26.096Z,21.45
2024-01-11T06:59:59.242Z,20.25
2024-01-11T07:02:31.281Z,20.83
2024-01-11T07:05:05.506Z,19.63
2024-01-11T07:07:37.243Z,20.02
2024-01-11T07:10:12.242Z,20.23
2024-01-11T07:12:49.350Z,20.67
2024-01-11T07:15:19.705Z,20.30
2024-01-11T07:17:54.809Z,20.80
2024-01-11T07:20:26.037Z,20.13
2024-01-11T07:22:56.954Z,21.02
2024-01-11T07:25:27.716Z,20.42
2024-01-11T07:28:01.158Z,21.05
2024-01-11T07:30:33.205Z,20.73
2024-01-11T07:33:23.627Z,20.75
2024-01-11T07:35:54.722Z,20.85
2024-01-11T07:38:28.394Z,19.98
2024-01-11T07:40:59.296Z,20.15
2024-01-11T07:43:32.320Z,20.40
2024-01-11T07:46:13.241Z,21.02
2024-01-11T07:48:44.051Z,20.27
2024-01-11T07:51:15.134Z,20.75
2024-01-11T07:53:50.487Z,20.25
2024-01-11T07:56:23.868Z,19.25
2024-01-11T07:58:56.665Z,22.33
2024-01-11T08:01:27.290Z,17.85
2024-01-11T08:09:11.821Z,20.17
2024-01-11T08:11:51.007Z,21.52
2024-01-11T08:14:25.950Z,22.25
2024-01-11T08:16:59.856Z,22.35
2024-01-11T08:19:31.634Z,21.25
2024-01-11T08:22:06.683Z,22.13
2024-01-11T08:24:39.519Z,21.48
2024-01-11T08:27:09.846Z,19.90
2024-01-11T08:29:43.462Z,20.00
2024-01-11T08:32:23.478Z,20.65
2024-01-11T08:35:01.000Z,20.23
2024-01-11T08:37:32.694Z,20.00
2024-01-11T08:40:05.896Z,18.65
2024-01-11T08:42:39.305Z,20.75
2024-01-11T08:45:11.402Z,19.35
2024-01-11T08:47:54.501Z,23.42
2024-01-11T08:50:26.103Z,21.42
2024-01-11T08:52:58.227Z,21.60
2024-01-11T08:55:30.821Z,21.65
2024-01-11T08:58:01.271Z,22.55
2024-01-11T09:00:32.634Z,20.60
2024-01-11T09:03:24.542Z,22.67
2024-01-11T09:05:58.594Z,21.23
2024-01-11T09:08:31.248Z,19.90
2024-01-11T09:11:03.625Z,20.45
2024-01-11T09:13:36.663Z,22.30
2024-01-11T09:16:10.752Z,21.30
2024-01-11T09:18:42.808Z,20.67
2024-01-11T09:21:19.653Z,19.85
2024-01-11T09:23:50.088Z,21.75
2024-01-11T09:26:20.734Z,21.27
2024-01-11T09:28:51.253Z,21.70
2024-01-11T09:31:26.808Z,21.15
2024-01-11T09:33:58.651Z,20.70
2024-01-11T09:36:30.197Z,20.52
2024-01-11T09:39:03.712Z,20.92
2024-01-11T09:41:35.950Z,21.67
2024-01-11T09:44:09.691Z,20.02
2024-01-11T09:46:43.625Z,20.75
2024-01-11T09:49:14.581Z,18.95
2024-01-11T09:51:48.933Z,20.02
2024-01-11T09:54:22.874Z,20.42
2024-01-11T09:56:57.446Z,18.35
2024-01-11T09:59:28.926Z,19.50
2024-01-11T10:02:02.762Z,20.20
2024-01-11T10:04:35.772Z,20.67
2024-01-11T10:07:08.752Z,20.80
2024-01-11T10:09:40.130Z,19.85
2024-01-11T10:12:13.332Z,19.80
2024-01-11T10:14:44.101Z,19.45
2024-01-11T10:17:21.748Z,19.80
2024-01-11T10:20:00.948Z,19.55
2024-01-11T10:22:34.443Z,20.42
2024-01-11T10:25:13.873Z,21.00
2024-01-11T10:30:21.602Z,20.77
2024-01-11T10:32:56.713Z,21.05
2024-01-11T10:35:29.616Z,20.67
2024-01-11T10:38:02.509Z,22.55
2024-01-11T10:40:39.590Z,22.10
2024-01-11T10:43:16.964Z,21.30
2024-01-11T10:45:55.217Z,19.42
2024-01-11T10:48:29.173Z,18.92
2024-01-11T10:51:09.842Z,19.63
2024-01-11T10:53:47.247Z,19.33
2024-01-11T10:56:20.899Z,20.05
2024-01-11T10:58:51.908Z,19.15
2024-01-11T11:01:25.467Z,19.43
2024-01-11T11:03:58.826Z,17.50
2024-01-11T11:06:31.773Z,20.95
2024-01-11T11:09:04.715Z,19.27
2024-01-11T11:11:39.320Z,18.35
2024-01-11T11:14:13.351Z,17.83
2024-01-11T11:16:48.731Z,18.52
2024-01-11T11:19:21.737Z,18.05
2024-01-11T11:21:53.608Z,19.33
2024-01-11T11:24:24.400Z,18.20
2024-01-11T11:26:58.573Z,19.75
2024-01-11T11:29:32.021Z,18.92
2024-01-11T11:32:03.122Z,16.92
2024-01-11T11:34:46.994Z,18.40
2024-01-11T11:37:26.483Z,18.95
2024-01-11T11:40:02.409Z,18.05
2024-01-11T11:42:41.158Z,18.13
2024-01-11T11:45:15.445Z,17.05
2024-01-11T11:47:48.521Z,18.27
2024-01-11T11:52:57.391Z,17.85
2024-01-11T11:55:28.665Z,17.35
2024-01-11T11:57:59.328Z,17.77
2024-01-11T12:00:35.736Z,16.85
2024-01-11T12:03:15.660Z,16.90
2024-01-11T12:05:47.627Z,17.88
2024-01-11T12:08:18.889Z,16.77
2024-01-11T12:10:52.128Z,17.15
2024-01-11T12:13:22.900Z,16.98
2024-01-11T12:15:53.075Z,16.85
2024-01-11T12:18:25.917Z,17.38
2024-01-11T12:20:58.637Z,17.13
2024-01-11T12:23:36.128Z,16.55
2024-01-11T12:26:09.132Z,17.05
2024-01-11T12:28:41.810Z,17.02
2024-01-11T12:31:14.139Z,17.38
2024-01-11T12:33:47.670Z,16.80
2024-01-11T12:36:19.440Z,16.33
2024-01-11T12:38:53.385Z,17.45
2024-01-11T12:41:31.890Z,18.17
2024-01-11T12:44:02.721Z,17.38
2024-01-11T12:46:34.067Z,17.60
2024-01-11T12:49:07.274Z,16.95
2024-01-11T12:51:41.250Z,16.30
2024-01-11T12:54:20.668Z,16.05
2024-01-11T12:56:52.308Z,16.00
2024-01-11T12:59:29.179Z,16.80
2024-01-11T13:02:06.588Z,15.70
2024-01-11T13:04:40.576Z,14.75
2024-01-11T13:07:11.221Z,15.55
2024-01-11T13:09:43.896Z,17.33
2024-01-11T13:12:17.061Z,15.93
2024-01-11T13:14:48.726Z,15.57
2024-01-11T13:17:22.547Z,15.18
2024-01-11T13:19:53.327Z,15.85
2024-01-11T13:22:29.708Z,15.57
2024-01-11T13:25:01.684Z,14.45
2024-01-11T13:27:35.574Z,15.25
2024-01-11T13:30:10.057Z,14.70
2024-01-11T13:32:59.734Z,14.07
2024-01-11T13:35:45.132Z,15.30
2024-01-11T13:38:15.590Z,13.30
2024-01-11T13:40:51.017Z,13.20
2024-01-11T13:43:24.153Z,13.68
2024-01-11T13:46:05.841Z,12.82
2024-01-11T13:48:39.044Z,14.80
2024-01-11T13:51:14.350Z,13.52
2024-01-11T13:53:48.190Z,12.43
2024-01-11T13:56:20.379Z,17.23
2024-01-11T13:58:52.700Z,13.82
2024-01-11T14:01:23.640Z,13.23
2024-01-11T14:03:56.811Z,12.43
2024-01-11T14:06:27.742Z,13.15
2024-01-11T14:09:01.435Z,13.50
2024-01-11T14:11:33.762Z,12.57
2024-01-11T14:14:05.041Z,12.60
2024-01-11T14:16:36.136Z,13.85
2024-01-11T14:19:06.562Z,13.27
2024-01-11T14:21:37.881Z,12.82
2024-01-11T14:24:09.644Z,12.05
2024-01-11T14:26:40.722Z,12.63
2024-01-11T14:29:12.296Z,12.10
2024-01-11T14:31:44.645Z,11.80
2024-01-11T14:34:18.582Z,11.82
2024-01-11T14:36:49.078Z,11.38
2024-01-11T14:39:19.953Z,11.40
2024-01-11T14:41:51.029Z,11.25
2024-01-11T14:44:21.593Z,12.20
2024-01-11T14:46:52.981Z,11.93
2024-01-11T14:49:23.672Z,11.65
2024-01-11T14:51:54.577Z,12.80
2024-01-11T14:54:26.376Z,12.48
2024-01-11T14:56:59.074Z,12.75
2024-01-11T14:59:33.483Z,12.63
2024-01-11T15:02:05.815Z,12.02
2024-01-11T15:04:40.680Z,12.93
2024-01-11T15:07:14.166Z,13.13
2024-01-11T15:09:44.855Z,12.75
2024-01-11T15:12:16.155Z,13.25
2024-01-11T15:14:48.077Z,12.45
2024-01-11T15:17:19.560Z,13.48
2024-01-11T15:19:50.517Z,12.52
2024-01-11T15:22:21.040Z,13.32
2024-01-11T15:24:54.779Z,12.93
2024-01-11T15:27:25.782Z,12.50
2024-01-11T15:29:59.289Z,12.00
2024-01-11T15:35:13.625Z,12.38
2024-01-11T15:37:49.759Z,12.25
2024-01-11T15:40:22.880Z,12.65
2024-01-11T15:45:26.828Z,11.88
2024-01-11T15:47:57.872Z,11.82
2024-01-11T15:50:32.067Z,13.10
2024-01-11T15:53:08.187Z,11.30
2024-01-11T15:55:41.342Z,12.35
2024-01-11T15:58:16.066Z,11.93
2024-01-11T16:00:47.755Z,11.25
2024-01-11T16:03:32.216Z,10.95
2024-01-11T16:06:07.455Z,10.70
2024-01-11T16:08:40.695Z,10.18
2024-01-11T16:11:11.122Z,10.18
2024-01-11T16:13:45.223Z,10.52
2024-01-11T16:16:19.052Z,10.13
2024-01-11T16:18:50.810Z,8.98
2024-01-11T16:21:21.150Z,9.15
2024-01-11T16:23:51.542Z,8.13
2024-01-11T16:26:25.345Z,7.88
2024-01-11T16:28:56.505Z,7.43
2024-01-11T16:31:27.097Z,7.68
2024-01-11T16:34:00.204Z,7.88
2024-01-11T16:36:31.694Z,7.45
2024-01-11T16:39:04.619Z,6.78
2024-01-11T16:41:36.289Z,7.07
2024-01-11T16:44:11.645Z,6.55
2024-01-11T16:46:43.954Z,6.50
2024-01-11T16:49:15.497Z,6.38
2024-01-11T16:51:51.381Z,5.63
2024-01-11T16:54:24.856Z,6.75
2024-01-11T16:56:55.480Z,6.10
2024-01-11T16:59:28.314Z,6.22
2024-01-11T17:01:59.165Z,7.43
2024-01-11T17:04:31.018Z,7.22
2024-01-11T17:07:02.623Z,7.18
2024-01-11T17:09:34.371Z,8.05
2024-01-11T17:12:04.781Z,7.50
2024-01-11T17:14:37.979Z,8.32
2024-01-11T17:17:09.910Z,7.35
2024-01-11T17:19:41.072Z,8.85
2024-01-11T17:22:13.464Z,7.70
2024-01-11T17:24:45.133Z,8.90
2024-01-11T17:27:19.372Z,9.52
2024-01-11T17:29:49.805Z,9.40
2024-01-11T17:32:23.022Z,9.25
2024-01-11T17:34:57.145Z,9.60
2024-01-11T17:37:29.339Z,9.43
2024-01-11T17:40:02.732Z,10.23
2024-01-11T17:45:07.169Z,12.07
2024-01-11T17:47:40.480Z,11.75
2024-01-11T17:50:12.540Z,12.07
2024-01-11T17:52:47.782Z,11.63
2024-01-11T17:55:19.015Z,11.88
2024-01-11T17:57:51.104Z,12.23
2024-01-11T18:00:31.143Z,12.43
2024-01-11T18:05:52.147Z,11.68
2024-01-11T18:08:22.614Z,12.10
2024-01-11T18:10:55.656Z,14.48
2024-01-11T18:13:26.801Z,14.98
2024-01-11T18:15:57.278Z,14.40
2024-01-11T18:18:34.867Z,14.38
2024-01-11T18:21:08.185Z,13.32
2024-01-11T18:23:38.707Z,12.95
2024-01-11T18:26:12.149Z,13.38
2024-01-11T18:28:46.309Z,13.13
2024-01-11T18:31:19.850Z,14.85
2024-01-11T18:33:53.353Z,14.48
2024-01-11T18:36:28.581Z,13.45
2024-01-11T18:39:00.461Z,13.70
2024-01-11T18:41:32.208Z,13.63
2024-01-11T18:44:03.096Z,18.60
2024-01-11T18:46:43.303Z,14.45
2024-01-11T18:49:14.335Z,13.07
2024-01-11T18:51:46.742Z,13.88
2024-01-11T18:54:17.457Z,15.13
2024-01-11T18:56:48.130Z,14.18
2024-01-11T18:59:18.624Z,15.43
2024-01-11T19:01:50.849Z,15.40
2024-01-11T19:04:21.898Z,15.05
2024-01-11T19:06:59.506Z,15.93
2024-01-11T19:09:30.981Z,14.73
2024-01-11T19:12:01.993Z,16.63
2024-01-11T19:14:36.605Z,14.45
2024-01-11T19:17:10.666Z,17.67
2024-01-11T19:19:41.370Z,22.67
2024-01-11T19:22:14.396Z,17.23
2024-01-11T19:24:47.437Z,16.30
2024-01-11T19:27:18.114Z,22.15
2024-01-11T19:29:49.310Z,15.75
2024-01-11T19:32:27.869Z,15.73
2024-01-11T19:34:59.019Z,16.70
2024-01-11T19:37:29.913Z,17.50
2024-01-11T19:40:01.320Z,13.30
2024-01-11T19:42:34.845Z,15.75
2024-01-11T19:45:05.320Z,14.38
2024-01-11T19:47:42.130Z,15.77
2024-01-11T19:50:14.356Z,15.18
2024-01-11T19:52:54.275Z,15.85
2024-01-11T19:55:26.587Z,16.50
2024-01-11T19:57:57.745Z,16.23
2024-01-11T20:00:31.288Z,15.13
2024-01-11T20:03:16.717Z,14.45
2024-01-11T20:05:47.810Z,15.55
2024-01-11T20:08:25.986Z,15.77
2024-01-11T20:11:02.735Z,16.15
2024-01-11T20:13:36.214Z,15.52
2024-01-11T20:16:09.472Z,15.48
2024-01-11T20:18:40.005Z,16.38
2024-01-11T20:21:14.506Z,17.65
2024-01-11T20:23:46.434Z,16.80
2024-01-11T20:26:24.804Z,17.70
2024-01-11T20:29:00.620Z,16.57
2024-01-11T20:31:35.045Z,17.48
2024-01-11T20:34:08.425Z,16.67
2024-01-11T20:36:39.962Z,17.15
2024-01-11T20:39:13.275Z,17.40
2024-01-11T20:41:46.171Z,17.52
2024-01-11T20:44:22.116Z,18.23
2024-01-11T20:46:52.644Z,18.80
2024-01-11T20:49:23.087Z,19.40
2024-01-11T20:51:58.779Z,19.85
2024-01-11T20:54:31.311Z,16.70
2024-01-11T20:57:03.860Z,20.00
2024-01-11T20:59:36.899Z,17.70
2024-01-11T21:02:15.047Z,18.77
2024-01-11T21:04:50.754Z,17.33
2024-01-11T21:07:21.428Z,19.27
2024-01-11T21:09:54.984Z,19.13
2024-01-11T21:12:25.646Z,17.75
2024-01-11T21:14:56.003Z,16.83
2024-01-11T21:17:26.437Z,17.08
2024-01-11T21:19:57.772Z,17.15
2024-01-11T21:22:28.424Z,17.40
2024-01-11T21:25:01.089Z,18.33
2024-01-11T21:27:36.724Z,18.48
2024-01-11T21:30:08.210Z,17.48
2024-01-11T21:33:00.301Z,17.40
2024-01-11T21:35:31.052Z,17.92
2024-01-11T21:38:01.885Z,19.98
2024-01-11T21:40:34.876Z,18.88
2024-01-11T21:43:09.994Z,19.08
2024-01-11T21:45:40.576Z,18.38
2024-01-11T21:48:14.693Z,19.33
2024-01-11T21:50:49.844Z,19.20
2024-01-11T21:53:26.271Z,19.92
2024-01-11T21:55:54.451Z,18.85
2024-01-11T21:58:26.840Z,18.75
2024-01-11T22:00:59.791Z,19.92
2024-01-11T22:03:35.237Z,18.77
2024-01-11T22:06:08.751Z,19.23
2024-01-11T22:08:41.518Z,21.52
2024-01-11T22:11:15.145Z,19.65
2024-01-11T22:13:49.899Z,20.38
2024-01-11T22:16:24.338Z,21.70
2024-01-11T22:18:56.814Z,19.55
2024-01-11T22:21:29.115Z,20.10
2024-01-11T22:24:03.752Z,20.13
2024-01-11T22:26:38.511Z,19.27
2024-01-11T22:29:12.116Z,22.38
2024-01-11T22:31:42.435Z,22.03
2024-01-11T22:34:13.285Z,21.50
2024-01-11T22:36:44.377Z,21.27
2024-01-11T22:39:17.606Z,21.60
2024-01-11T22:41:48.643Z,21.13
2024-01-11T22:44:21.489Z,22.05
2024-01-11T22:46:57.532Z,21.50
2024-01-11T22:49:29.274Z,20.80
2024-01-11T22:51:59.569Z,21.15
2024-01-11T22:54:32.766Z,23.00
2024-01-11T22:57:06.125Z,21.17
2024-01-11T22:59:37.128Z,22.50
2024-01-11T23:02:08.697Z,22.98
2024-01-11T23:04:40.802Z,23.02
2024-01-11T23:07:11.009Z,20.70
2024-01-11T23:09:43.534Z,20.48
2024-01-11T23:12:13.739Z,21.90
2024-01-11T23:14:45.121Z,21.95
2024-01-11T23:17:15.702Z,21.77
2024-01-11T23:19:48.564Z,21.30
2024-01-11T23:22:21.777Z,21.23
2024-01-11T23:24:52.405Z,21.88
2024-01-11T23:27:23.152Z,21.10
2024-01-11T23:29:53.493Z,21.60
2024-01-11T23:32:24.650Z,21.45
2024-01-11T23:34:56.080Z,20.40
2024-01-11T23:37:29.080Z,20.75
2024-01-11T23:40:05.093Z,21.83
2024-01-11T23:42:44.113Z,22.10
2024-01-11T23:45:15.185Z,21.20
2024-01-11T23:47:50.964Z,21.55
2024-01-11T23:50:22.629Z,21.85
2024-01-11T23:52:58.355Z,23.73
2024-01-11T23:55:32.273Z,24.27
2024-01-11T23:58:05.059Z,24.42
